Time;durP1;ratioP1;P1;durP2;ratioP2;P2;SDS_P1;SDS_P2;PMS_P1;PMS_P2;Temp;Humidity;BMP_temperature;BMP_pressure;BME280_temperature;BME280_humidity;BME280_pressure;Samples;Min_cycle;Max_cycle;Signal;HPM_P1;HPM_P2
2021/03/06 00:01:00;;;;;;;13.05;8.10;;;;;;;-1.10;98.41;102452.13;10189138;29;20076;-75
2021/03/06 00:06:03;;;;;;;10.33;7.93;;;;;;;-1.05;99.04;102460.88;10186037;29;20044;-76
2021/03/06 00:11:04;;;;;;;11.15;6.88;;;;;;;-0.98;99.30;102477.47;10188784;29;20084;-76
2021/03/06 00:16:06;;;;;;;10.45;8.63;;;;;;;-0.91;98.88;102484.59;10189426;29;20083;-76
2021/03/06 00:21:07;;;;;;;9.65;7.20;;;;;;;-0.88;97.55;102489.88;10189261;29;20024;-76
2021/03/06 00:26:20;;;;;;;8.68;7.18;;;;;;;-0.85;97.28;102490.88;10189132;29;20056;-75
2021/03/06 00:31:21;;;;;;;10.27;7.07;;;;;;;-1.02;97.02;102475.63;10189215;29;20040;-76
2021/03/06 00:36:23;;;;;;;10.18;6.70;;;;;;;-1.19;97.88;102483.72;10190032;29;20053;-76
2021/03/06 00:41:26;;;;;;;9.05;6.40;;;;;;;-1.05;97.87;102502.25;10188673;29;20037;-76
2021/03/06 00:46:29;;;;;;;9.88;7.45;;;;;;;-1.21;97.21;102477.59;10189721;29;20041;-75
2021/03/06 00:51:32;;;;;;;10.20;7.63;;;;;;;-1.39;97.10;102470.91;10188425;29;20024;-76
2021/03/06 00:56:43;;;;;;;11.93;7.25;;;;;;;-1.37;97.61;102477.03;10188111;29;20095;-76
2021/03/06 01:01:45;;;;;;;11.15;7.93;;;;;;;-1.14;97.37;102512.31;10172288;29;20048;-76
2021/03/06 01:06:48;;;;;;;10.25;7.57;;;;;;;-1.22;96.60;102499.13;10203603;29;20037;-75
2021/03/06 01:11:49;;;;;;;10.95;8.38;;;;;;;-1.25;96.57;102496.41;10203729;29;20039;-76
2021/03/06 01:16:50;;;;;;;11.55;8.18;;;;;;;-1.30;97.06;102487.63;10188349;29;20040;-75
2021/03/06 01:21:52;;;;;;;11.98;7.32;;;;;;;-1.28;97.51;102491.16;10187543;29;20050;-75
2021/03/06 01:27:07;;;;;;;12.15;7.63;;;;;;;-1.24;97.28;102498.19;10188222;29;20588;-76
2021/03/06 01:32:09;;;;;;;13.13;9.38;;;;;;;-1.34;97.68;102482.31;10188019;29;20028;-75
2021/03/06 01:37:10;;;;;;;10.75;8.27;;;;;;;-1.46;97.38;102461.22;10187462;29;20052;-76
2021/03/06 01:42:11;;;;;;;11.73;9.60;;;;;;;-1.54;98.14;102472.16;10186396;29;20033;-75
2021/03/06 01:47:13;;;;;;;12.00;9.45;;;;;;;-1.58;98.14;102466.81;10186675;29;20045;-75
2021/03/06 01:52:15;;;;;;;11.05;8.85;;;;;;;-1.65;98.12;102462.25;10186486;29;20037;-76
2021/03/06 01:57:28;;;;;;;13.18;8.73;;;;;;;-1.75;98.18;102458.47;10171758;29;20048;-76
2021/03/06 02:02:29;;;;;;;14.40;9.05;;;;;;;-1.68;97.93;102475.97;10185671;29;20064;-76
2021/03/06 02:07:31;;;;;;;13.10;8.85;;;;;;;-1.67;97.41;102471.66;10185076;29;20059;-76
2021/03/06 02:13:10;;;;;;;14.05;9.23;;;;;;;-1.79;97.28;102460.91;10186428;29;20056;-76
2021/03/06 02:18:31;;;;;;;13.63;8.80;;;;;;;-1.67;96.96;102476.81;10156070;29;20088;-74
2021/03/06 02:24:10;;;;;;;13.75;8.40;;;;;;;-1.69;96.72;102476.78;10185914;29;20032;-76
2021/03/06 02:29:37;;;;;;;11.57;9.05;;;;;;;-1.83;96.44;102459.91;10186160;29;20060;-76
2021/03/06 02:34:43;;;;;;;11.43;8.90;;;;;;;-1.96;96.57;102445.69;10185614;29;20048;-76
2021/03/06 02:39:49;;;;;;;12.02;8.50;;;;;;;-2.01;97.38;102451.53;10185805;29;20029;-77
2021/03/06 02:44:52;;;;;;;13.20;8.23;;;;;;;-2.00;97.65;102453.25;10185097;29;20028;-77
2021/03/06 02:49:56;;;;;;;10.63;7.78;;;;;;;-2.01;97.92;102449.78;10185842;29;20055;-77
2021/03/06 02:54:57;;;;;;;10.40;7.85;;;;;;;-1.98;97.93;102465.41;10185904;29;20064;-77
2021/03/06 03:00:12;;;;;;;14.43;9.60;;;;;;;-2.16;97.86;102444.06;10169624;29;20052;-77
2021/03/06 03:05:43;;;;;;;12.65;8.43;;;;;;;-2.30;98.60;102430.66;10200589;29;20108;-77
2021/03/06 03:10:50;;;;;;;13.60;8.70;;;;;;;-2.20;99.15;102461.97;10181227;29;20052;-77
2021/03/06 03:16:03;;;;;;;16.58;8.75;;;;;;;-2.24;99.14;102471.28;10188635;29;20064;-77
2021/03/06 03:21:08;;;;;;;13.90;8.95;;;;;;;-2.30;99.62;102468.50;10193166;29;20060;-77
2021/03/06 03:26:11;;;;;;;12.02;8.48;;;;;;;-2.24;100.00;102471.28;10192825;29;20081;-76
2021/03/06 03:31:14;;;;;;;12.13;8.73;;;;;;;-2.21;99.89;102479.16;10208173;29;20044;-77
2021/03/06 03:36:16;;;;;;;12.00;8.50;;;;;;;-2.26;99.94;102478.13;10193127;29;20031;-77
2021/03/06 03:41:17;;;;;;;11.45;8.00;;;;;;;-2.33;100.00;102483.84;10192331;29;20076;-77
2021/03/06 03:46:19;;;;;;;12.82;8.02;;;;;;;-2.29;100.00;102485.75;10192060;29;20028;-77
2021/03/06 03:51:21;;;;;;;11.35;7.82;;;;;;;-2.27;100.00;102480.66;10190279;29;20040;-77
2021/03/06 03:56:22;;;;;;;11.95;8.45;;;;;;;-2.23;100.00;102492.81;10186790;29;20036;-76
2021/03/06 04:01:24;;;;;;;11.07;8.18;;;;;;;-2.26;100.00;102495.31;10189567;29;20061;-78
2021/03/06 04:06:25;;;;;;;11.00;8.80;;;;;;;-2.23;100.00;102495.41;10192161;29;20041;-77
2021/03/06 04:11:26;;;;;;;11.30;8.63;;;;;;;-2.26;100.00;102493.63;10192424;29;20092;-77
2021/03/06 04:16:27;;;;;;;10.40;8.27;;;;;;;-2.35;100.00;102499.31;10192838;29;20060;-77
2021/03/06 04:21:29;;;;;;;14.45;9.32;;;;;;;-2.44;100.00;102483.47;10192374;29;20029;-77
2021/03/06 04:26:30;;;;;;;11.80;8.75;;;;;;;-2.55;100.00;102479.56;10191553;29;20092;-76
2021/03/06 04:31:31;;;;;;;10.48;8.50;;;;;;;-2.48;100.00;102499.63;10192473;29;20080;-77
2021/03/06 04:36:32;;;;;;;11.57;8.63;;;;;;;-2.55;100.00;102494.16;10191775;29;20044;-74
2021/03/06 04:41:33;;;;;;;10.07;8.20;;;;;;;-2.64;100.00;102502.44;10191938;29;20044;-76
2021/03/06 04:46:34;;;;;;;13.50;9.85;;;;;;;-2.54;100.00;102517.47;10191457;29;20032;-76
2021/03/06 04:51:35;;;;;;;12.55;9.35;;;;;;;-2.67;100.00;102507.44;10191478;29;20036;-77
2021/03/06 04:56:37;;;;;;;11.02;8.63;;;;;;;-2.79;100.00;102500.13;10191683;29;20060;-77
2021/03/06 05:01:38;;;;;;;12.55;9.40;;;;;;;-2.98;100.00;102484.72;10206568;29;20062;-77
2021/03/06 05:06:40;;;;;;;11.27;8.05;;;;;;;-2.83;100.00;102512.81;10206664;29;20055;-77
2021/03/06 05:11:41;;;;;;;12.13;8.32;;;;;;;-2.78;100.00;102516.47;10191096;29;20080;-77
2021/03/06 05:16:42;;;;;;;12.30;8.07;;;;;;;-2.80;100.00;102518.09;10175105;29;20024;-77
2021/03/06 05:21:43;;;;;;;13.13;9.63;;;;;;;-2.88;100.00;102510.06;10190443;29;20048;-77
2021/03/06 05:26:44;;;;;;;13.68;8.85;;;;;;;-2.95;100.00;102513.22;10189438;29;20039;-77
2021/03/06 05:31:45;;;;;;;13.43;9.50;;;;;;;-3.01;100.00;102502.63;10190055;29;20040;-77
2021/03/06 05:36:49;;;;;;;11.30;8.27;;;;;;;-2.92;100.00;102520.16;10174163;29;20040;-77
2021/03/06 05:41:50;;;;;;;12.32;8.68;;;;;;;-2.86;100.00;102531.66;10188771;29;20056;-77
2021/03/06 05:46:52;;;;;;;12.02;8.88;;;;;;;-2.93;100.00;102527.03;10173686;29;20029;-76
2021/03/06 05:51:54;;;;;;;14.10;8.80;;;;;;;-2.94;100.00;102530.44;10189347;29;20088;-76
2021/03/06 05:56:55;;;;;;;12.07;8.85;;;;;;;-2.93;100.00;102531.34;10188912;29;20088;-76
2021/03/06 06:01:58;;;;;;;10.20;8.68;;;;;;;-3.06;100.00;102524.78;10188890;29;20032;-76
2021/03/06 06:07:01;;;;;;;10.60;8.90;;;;;;;-3.17;100.00;102513.13;10188658;29;20028;-77
2021/03/06 06:12:05;;;;;;;12.13;8.25;;;;;;;-2.96;100.00;102539.81;10188651;29;20479;-76
2021/03/06 06:17:11;;;;;;;13.00;8.23;;;;;;;-2.97;100.00;102548.34;10173077;29;20040;-77
2021/03/06 06:22:21;;;;;;;10.85;8.18;;;;;;;-2.88;100.00;102547.88;10187929;29;20056;-77
2021/03/06 06:27:28;;;;;;;12.55;7.85;;;;;;;-2.80;100.00;102573.16;10187587;29;20124;-77
2021/03/06 06:32:43;;;;;;;11.25;7.93;;;;;;;-2.64;100.00;102594.41;10202034;29;20052;-77
2021/03/06 06:38:02;;;;;;;13.25;8.55;;;;;;;-2.61;100.00;102592.84;10185324;29;20052;-76
2021/03/06 06:43:24;;;;;;;15.23;9.00;;;;;;;-2.46;100.00;102606.38;10185429;29;20072;-76
2021/03/06 06:48:25;;;;;;;12.85;7.88;;;;;;;-2.28;100.00;102628.59;10185663;29;20043;-76
2021/03/06 06:53:27;;;;;;;12.73;8.55;;;;;;;-1.76;100.00;102659.94;10185219;29;20048;-77
2021/03/06 06:58:35;;;;;;;11.80;8.57;;;;;;;-1.20;100.00;102695.69;10185326;29;20032;-77
2021/03/06 07:03:37;;;;;;;13.70;9.52;;;;;;;-0.55;100.00;102739.47;10185699;29;20048;-76
2021/03/06 07:08:39;;;;;;;14.30;8.75;;;;;;;0.11;100.00;102772.78;10185660;29;20100;-77
2021/03/06 07:13:40;;;;;;;11.23;8.98;;;;;;;1.14;100.00;102799.41;10184547;29;20045;-77
2021/03/06 07:18:42;;;;;;;10.55;8.95;;;;;;;1.58;98.10;102805.88;10183418;29;20079;-77
2021/03/06 07:23:43;;;;;;;12.82;8.57;;;;;;;1.94;95.65;102828.47;10183160;29;20052;-77
2021/03/06 07:28:44;;;;;;;11.30;8.18;;;;;;;2.00;89.49;102774.97;10183070;29;20068;-77
2021/03/06 07:33:45;;;;;;;10.45;9.30;;;;;;;2.17;87.78;102794.47;10197494;29;20103;-76
2021/03/06 07:38:47;;;;;;;12.63;10.55;;;;;;;3.53;82.56;102857.44;10180015;29;20048;-77
2021/03/06 07:43:53;;;;;;;10.45;8.60;;;;;;;4.23;79.78;102869.25;10181886;29;20050;-77
2021/03/06 07:49:00;;;;;;;13.45;9.50;;;;;;;4.24;78.91;102848.41;10182705;29;20100;-76
2021/03/06 07:54:04;;;;;;;10.82;9.55;;;;;;;4.39;76.76;102809.53;10183416;29;20049;-77
2021/03/06 07:59:06;;;;;;;11.93;10.73;;;;;;;4.32;75.49;102817.22;10181817;29;20044;-77
2021/03/06 08:04:33;;;;;;;13.15;10.10;;;;;;;4.00;74.89;102752.34;10186343;29;20053;-77
2021/03/06 08:10:00;;;;;;;13.02;11.75;;;;;;;4.16;73.87;102750.88;10190354;29;20029;-77
2021/03/06 08:15:31;;;;;;;12.15;10.23;;;;;;;3.68;75.13;102723.09;10188943;29;20032;-76
2021/03/06 08:20:34;;;;;;;11.52;9.85;;;;;;;5.15;71.46;102786.28;10178625;29;20031;-77
2021/03/06 08:25:36;;;;;;;11.43;10.20;;;;;;;4.26;70.53;102679.75;10185697;29;20032;-76
2021/03/06 08:30:37;;;;;;;12.80;10.52;;;;;;;5.50;70.99;102839.00;10200004;29;20055;-77
2021/03/06 08:35:38;;;;;;;10.95;8.73;;;;;;;6.29;66.98;102798.00;10168770;29;20049;-77
2021/03/06 08:40:40;;;;;;;12.35;8.70;;;;;;;6.38;64.85;102761.41;10184662;29;20048;-78
2021/03/06 08:45:41;;;;;;;12.55;10.15;;;;;;;6.74;65.46;102811.47;10183345;29;20080;-77
2021/03/06 08:50:44;;;;;;;12.45;9.25;;;;;;;6.76;64.56;102777.41;10183574;29;20048;-77
2021/03/06 08:55:46;;;;;;;9.68;8.68;;;;;;;7.07;63.49;102781.94;10181960;29;20079;-77
2021/03/06 09:00:49;;;;;;;10.82;8.70;;;;;;;8.34;61.07;102852.34;10182332;29;20055;-78
2021/03/06 09:05:58;;;;;;;8.73;7.13;;;;;;;8.16;59.21;102777.88;10182460;29;20056;-77
2021/03/06 09:11:00;;;;;;;10.38;8.60;;;;;;;9.07;57.95;102827.75;10198797;29;20048;-77
2021/03/06 09:16:03;;;;;;;11.52;8.02;;;;;;;10.43;55.83;102917.53;10197945;29;20053;-77
2021/03/06 09:21:19;;;;;;;9.20;7.30;;;;;;;11.37;52.50;102843.72;10181774;29;20044;-78
2021/03/06 09:26:27;;;;;;;8.73;7.35;;;;;;;9.56;53.06;102659.16;10182237;29;20059;-77
2021/03/06 09:31:33;;;;;;;9.48;8.40;;;;;;;10.59;52.49;102787.41;10181987;29;20051;-78
2021/03/06 09:36:34;;;;;;;10.95;8.00;;;;;;;10.87;52.37;102819.66;10180625;29;20044;-77
2021/03/06 09:41:38;;;;;;;7.38;6.45;;;;;;;10.42;51.99;102704.97;10180713;29;20044;-78
2021/03/06 09:46:40;;;;;;;10.00;7.85;;;;;;;12.08;48.67;102796.13;10181278;29;20064;-78
2021/03/06 09:51:44;;;;;;;9.07;7.03;;;;;;;12.70;46.40;102726.31;10179101;29;20044;-77
2021/03/06 09:56:50;;;;;;;8.43;7.32;;;;;;;10.75;48.65;102559.63;10178863;29;20052;-76
2021/03/06 10:01:51;;;;;;;8.90;8.00;;;;;;;12.19;49.46;102831.19;10181200;29;20064;-78
2021/03/06 10:06:54;;;;;;;8.93;7.97;;;;;;;11.59;49.94;102672.72;10180129;29;20501;-76
2021/03/06 10:12:03;;;;;;;8.97;8.03;;;;;;;11.54;51.45;102772.22;10195941;29;20115;-78
2021/03/06 10:17:07;;;;;;;8.85;7.95;;;;;;;12.19;49.67;102741.34;10178837;29;20049;-76
2021/03/06 10:22:10;;;;;;;8.35;7.55;;;;;;;11.19;51.81;102726.97;10178157;29;20040;-78
2021/03/06 10:27:11;;;;;;;9.65;7.72;;;;;;;11.81;50.17;102714.66;10180894;29;20032;-77
2021/03/06 10:32:12;;;;;;;8.77;7.15;;;;;;;13.77;45.22;102726.69;10179342;29;20052;-75
2021/03/06 10:37:22;;;;;;;8.23;7.07;;;;;;;10.85;49.56;102553.34;10179916;29;20080;-76
2021/03/06 10:43:02;;;;;;;8.07;6.47;;;;;;;15.89;40.17;102711.88;10195540;29;20121;-78
2021/03/06 10:48:04;;;;;;;7.22;6.30;;;;;;;14.42;40.91;102580.06;10120308;29;20069;-78
2021/03/06 10:53:16;;;;;;;7.15;6.22;;;;;;;14.10;41.26;102588.03;10155230;29;20053;-75
2021/03/06 10:58:17;;;;;;;6.53;5.78;;;;;;;14.71;40.49;102673.88;10181533;29;20048;-76
2021/03/06 11:03:19;;;;;;;6.00;4.93;;;;;;;14.90;38.56;102584.84;10198110;29;20535;-76
2021/03/06 11:08:21;;;;;;;5.32;4.63;;;;;;;14.82;38.73;102561.19;10182706;29;20036;-75
2021/03/06 11:13:22;;;;;;;5.97;4.45;;;;;;;13.27;40.79;102487.81;10181432;29;20065;-75
2021/03/06 11:18:24;;;;;;;6.00;5.40;;;;;;;12.89;40.81;102486.94;10181897;29;20064;-76
2021/03/06 11:23:26;;;;;;;8.18;5.93;;;;;;;13.75;39.49;102512.13;10181129;29;20053;-75
2021/03/06 11:28:27;;;;;;;7.53;5.13;;;;;;;14.41;38.44;102558.91;10181380;29;20076;-74
2021/03/06 11:33:28;;;;;;;6.93;4.40;;;;;;;14.30;38.04;102481.44;10182703;29;20036;-76
2021/03/06 11:38:30;;;;;;;5.75;4.63;;;;;;;14.04;40.08;102585.56;10186952;29;20068;-76
2021/03/06 11:43:32;;;;;;;5.35;4.53;;;;;;;13.09;38.80;102377.09;10188840;29;20045;-76
2021/03/06 11:48:33;;;;;;;19.23;15.82;;;;;;;13.31;39.80;102427.75;10181317;29;20502;-74
2021/03/06 11:53:34;;;;;;;4.97;4.18;;;;;;;15.32;37.79;102635.72;10172372;29;20025;-76
2021/03/06 11:58:36;;;;;;;7.50;5.68;;;;;;;15.72;36.57;102526.41;10181856;29;20044;-75
2021/03/06 12:03:37;;;;;;;6.35;4.03;;;;;;;13.79;37.64;102331.00;10183836;29;20059;-76
2021/03/06 12:08:38;;;;;;;6.90;4.30;;;;;;;13.83;38.92;102438.63;10197219;29;20088;-74
2021/03/06 12:13:39;;;;;;;5.18;4.25;;;;;;;15.99;36.67;102535.16;10165833;29;20080;-75
2021/03/06 12:18:41;;;;;;;8.20;5.75;;;;;;;15.01;36.77;102381.00;10186668;29;20032;-75
2021/03/06 12:23:43;;;;;;;6.05;4.50;;;;;;;15.99;36.05;102444.78;10185457;29;20121;-76
2021/03/06 12:28:44;;;;;;;5.55;4.10;;;;;;;16.51;36.66;102477.38;10202405;29;20076;-75
2021/03/06 12:33:45;;;;;;;6.40;4.53;;;;;;;15.86;34.83;102358.47;10186520;29;20044;-76
2021/03/06 12:38:46;;;;;;;6.32;3.80;;;;;;;14.02;39.01;102365.63;10186099;29;20052;-75
2021/03/06 12:43:48;;;;;;;6.13;4.55;;;;;;;12.39;40.62;102247.53;10184062;29;20076;-75
2021/03/06 12:48:50;;;;;;;5.03;3.70;;;;;;;15.42;36.73;102515.00;10182802;29;20048;-75
2021/03/06 12:53:51;;;;;;;6.95;3.80;;;;;;;15.68;37.35;102503.50;10183285;29;20078;-76
2021/03/06 12:58:52;;;;;;;5.28;3.60;;;;;;;14.80;37.45;102344.59;10180693;29;20055;-75
2021/03/06 13:03:53;;;;;;;5.25;3.42;;;;;;;15.42;35.21;102322.88;10176649;29;20058;-75
2021/03/06 13:08:55;;;;;;;4.55;3.45;;;;;;;12.95;37.22;102127.91;10175624;29;20080;-74
2021/03/06 13:13:56;;;;;;;4.85;3.33;;;;;;;11.20;42.32;102129.84;10159895;29;20059;-75
2021/03/06 13:18:58;;;;;;;5.10;4.30;;;;;;;11.94;40.39;102209.94;10174806;29;20052;-74
2021/03/06 13:24:00;;;;;;;5.75;3.92;;;;;;;13.04;39.54;102334.03;10175549;29;20049;-74
2021/03/06 13:29:01;;;;;;;6.03;4.65;;;;;;;12.68;39.82;102282.94;10189095;29;20052;-76
2021/03/06 13:34:02;;;;;;;5.63;3.88;;;;;;;12.79;40.11;102255.31;10168826;29;20049;-74
2021/03/06 13:39:04;;;;;;;13.40;5.22;;;;;;;11.45;41.37;102140.69;10166281;29;20052;-74
2021/03/06 13:44:06;;;;;;;8.68;5.07;;;;;;;10.95;41.57;102100.50;10166301;29;20044;-73
2021/03/06 13:49:07;;;;;;;4.32;3.55;;;;;;;10.45;42.70;102054.13;10165955;29;20060;-73
2021/03/06 13:54:09;;;;;;;5.20;3.78;;;;;;;9.68;44.62;102078.34;10163537;29;20051;-73
2021/03/06 13:59:10;;;;;;;6.50;3.67;;;;;;;10.42;43.30;102143.75;10168361;29;20074;-76
2021/03/06 14:04:11;;;;;;;4.57;3.40;;;;;;;9.85;44.09;102076.31;10159739;29;20060;-74
2021/03/06 14:09:12;;;;;;;6.00;5.38;;;;;;;9.96;44.18;102107.69;10160711;29;20049;-74
2021/03/06 14:14:13;;;;;;;7.10;3.97;;;;;;;9.52;45.15;102090.91;10227699;29;20047;-74
2021/03/06 14:19:15;;;;;;;5.30;3.90;;;;;;;10.35;45.80;102186.94;10233035;29;20110;-77
2021/03/06 14:24:16;;;;;;;4.93;3.95;;;;;;;10.20;44.83;102159.97;10251577;29;20043;-78
2021/03/06 14:29:18;;;;;;;4.47;3.45;;;;;;;9.69;45.26;102088.00;10255562;29;20066;-77
2021/03/06 14:34:19;;;;;;;5.35;3.03;;;;;;;9.43;45.84;102077.91;10256717;29;20048;-77
2021/03/06 14:39:20;;;;;;;4.57;3.83;;;;;;;9.40;45.57;102077.94;10257673;29;20062;-77
2021/03/06 14:44:21;;;;;;;5.75;3.53;;;;;;;8.32;46.29;101976.13;10256670;29;20063;-77
2021/03/06 14:49:22;;;;;;;5.80;3.72;;;;;;;8.99;46.08;102088.19;10256974;29;20063;-77
2021/03/06 14:54:23;;;;;;;5.90;3.65;;;;;;;8.49;46.81;102021.44;10257160;29;20031;-77
2021/03/06 14:59:25;;;;;;;6.40;4.10;;;;;;;8.14;47.19;102008.69;10256448;29;20071;-77
2021/03/06 15:04:28;;;;;;;5.07;3.93;;;;;;;8.35;46.91;102032.13;10256250;29;20358;-76
2021/03/06 15:09:29;;;;;;;5.85;3.90;;;;;;;8.79;45.64;102053.47;10255000;29;20102;-76
2021/03/06 15:14:33;;;;;;;4.60;4.00;;;;;;;8.74;46.25;102041.22;10256777;29;20048;-77
2021/03/06 15:19:34;;;;;;;5.20;4.05;;;;;;;8.63;49.07;102107.94;10259092;29;20055;-77
2021/03/06 15:24:36;;;;;;;5.60;4.07;;;;;;;8.23;50.74;102066.34;10259036;29;20074;-77
2021/03/06 15:29:37;;;;;;;6.55;4.10;;;;;;;8.07;51.98;102109.41;10241607;29;20052;-76
2021/03/06 15:34:38;;;;;;;6.20;4.25;;;;;;;8.08;51.65;102091.91;10258454;29;20082;-77
2021/03/06 15:39:39;;;;;;;6.93;4.90;;;;;;;8.23;51.76;102126.75;10258838;29;20044;-77
2021/03/06 15:44:40;;;;;;;5.40;4.10;;;;;;;7.59;53.53;102076.63;10257363;29;20079;-77
2021/03/06 15:49:41;;;;;;;5.60;4.45;;;;;;;7.85;52.80;102093.00;10257060;29;20079;-77
2021/03/06 15:54:43;;;;;;;5.97;4.75;;;;;;;7.53;55.62;102111.63;10255041;29;20055;-78
2021/03/06 15:59:46;;;;;;;6.53;4.10;;;;;;;7.34;56.65;102122.25;10255848;29;20075;-77
2021/03/06 16:04:47;;;;;;;6.45;4.65;;;;;;;7.33;57.00;102099.53;10258597;29;20083;-77
2021/03/06 16:09:49;;;;;;;8.27;4.47;;;;;;;7.21;57.34;102101.34;10259054;29;20048;-77
2021/03/06 16:14:50;;;;;;;5.38;3.90;;;;;;;7.20;56.04;102104.84;10257276;29;20079;-77
2021/03/06 16:19:51;;;;;;;5.47;4.35;;;;;;;7.25;58.13;102131.06;10257137;29;20063;-76
2021/03/06 16:24:52;;;;;;;5.97;4.20;;;;;;;7.15;58.94;102121.50;10259949;29;20062;-77
2021/03/06 16:29:55;;;;;;;7.50;4.90;;;;;;;7.08;60.70;102130.28;10263202;29;20050;-77
2021/03/06 16:34:56;;;;;;;7.22;4.88;;;;;;;7.12;62.25;102139.84;10247595;29;20052;-77
2021/03/06 16:39:57;;;;;;;8.40;5.68;;;;;;;6.41;63.68;102101.75;10264515;29;20044;-77
2021/03/06 16:44:59;;;;;;;11.57;6.15;;;;;;;6.21;64.38;102106.16;10263815;29;20075;-77
2021/03/06 16:50:00;;;;;;;6.32;5.60;;;;;;;5.91;66.07;102100.13;10264842;29;20055;-76
2021/03/06 16:55:03;;;;;;;8.93;5.65;;;;;;;5.78;67.11;102118.38;10263448;29;20116;-77
2021/03/06 17:00:07;;;;;;;7.20;5.15;;;;;;;5.85;67.59;102148.94;10263089;29;20048;-77
2021/03/06 17:05:09;;;;;;;9.90;5.93;;;;;;;5.59;67.31;102151.53;10264277;29;20156;-77
2021/03/06 17:10:11;;;;;;;7.05;5.70;;;;;;;5.47;66.77;102148.88;10264216;29;20288;-77
2021/03/06 17:15:12;;;;;;;8.38;5.80;;;;;;;5.56;66.70;102164.59;10264011;29;20051;-77
2021/03/06 17:20:15;;;;;;;8.68;5.43;;;;;;;5.37;67.49;102166.28;10264100;29;20027;-77
2021/03/06 17:25:17;;;;;;;10.25;6.75;;;;;;;5.13;68.38;102153.16;10263921;29;20119;-77
2021/03/06 17:30:20;;;;;;;8.25;5.90;;;;;;;5.16;69.35;102177.56;10264629;29;20108;-77
2021/03/06 17:35:22;;;;;;;9.35;6.88;;;;;;;5.02;69.82;102163.56;10253583;29;20091;-76
2021/03/06 17:40:23;;;;;;;7.75;6.03;;;;;;;4.86;70.17;102165.25;10266770;28;20047;-77
2021/03/06 17:45:24;;;;;;;7.82;6.30;;;;;;;4.71;71.21;102157.34;10267200;29;20116;-77
2021/03/06 17:50:43;;;;;;;8.77;6.25;;;;;;;4.61;72.49;102175.56;10267139;29;20043;-76
2021/03/06 17:55:44;;;;;;;;;;;;;;;4.22;73.11;102155.34;10266780;28;20036;-76
2021/03/06 18:00:46;;;;;;;11.20;8.60;;;;;;;4.37;73.35;102194.56;10263502;28;19978;-76
2021/03/06 18:05:47;;;;;;;7.90;7.07;;;;;;;4.47;73.34;102207.69;10259760;29;20058;-76
2021/03/06 18:10:48;;;;;;;8.95;7.45;;;;;;;4.37;74.86;102208.47;10264020;29;20039;-76
2021/03/06 18:15:50;;;;;;;8.85;7.38;;;;;;;4.17;76.13;102187.50;10266845;28;20024;-76
2021/03/06 18:20:52;;;;;;;9.57;8.20;;;;;;;3.83;76.92;102172.44;10266003;28;20040;-76
2021/03/06 18:25:54;;;;;;;11.65;9.18;;;;;;;3.56;77.11;102154.81;10388738;23;20055;-75
2021/03/06 18:30:55;;;;;;;9.68;7.65;;;;;;;3.51;77.03;102159.13;10226468;29;20032;-77
2021/03/06 18:35:59;;;;;;;10.60;8.48;;;;;;;3.48;77.17;102171.25;10226472;29;20028;-76
2021/03/06 18:41:00;;;;;;;12.23;9.40;;;;;;;3.48;77.52;102177.31;10225343;29;20067;-76
2021/03/06 18:46:03;;;;;;;12.02;9.50;;;;;;;3.20;78.04;102157.91;10225230;29;20113;-77
2021/03/06 18:51:05;;;;;;;15.88;9.98;;;;;;;3.09;78.44;102154.34;10226404;29;20024;-75
2021/03/06 18:56:06;;;;;;;10.73;9.55;;;;;;;3.10;78.12;102161.28;10224874;29;20032;-76
2021/03/06 19:01:08;;;;;;;10.40;8.18;;;;;;;2.78;78.68;102116.66;10224884;29;20028;-76
2021/03/06 19:06:13;;;;;;;9.70;8.15;;;;;;;2.45;80.34;102105.84;10225076;29;20036;-76
2021/03/06 19:11:14;;;;;;;12.55;11.25;;;;;;;2.89;80.78;102166.25;10221950;29;20104;-76
2021/03/06 19:16:16;;;;;;;14.85;11.27;;;;;;;2.68;80.61;102151.22;10202152;29;20056;-76
2021/03/06 19:21:19;;;;;;;11.85;9.82;;;;;;;2.00;82.11;102064.50;10201547;29;20052;-75
2021/03/06 19:26:23;;;;;;;13.27;10.00;;;;;;;1.80;84.00;102075.47;10218324;29;20048;-75
2021/03/06 19:31:24;;;;;;;11.52;9.65;;;;;;;1.69;86.13;102095.22;10219995;29;20028;-76
2021/03/06 19:36:26;;;;;;;9.93;9.00;;;;;;;2.08;86.60;102138.28;10219167;29;20059;-73
2021/03/06 19:41:28;;;;;;;13.73;10.10;;;;;;;2.26;85.47;102148.91;10215514;29;20032;-76
2021/03/06 19:46:29;;;;;;;12.23;9.60;;;;;;;2.14;84.36;102125.34;10218435;29;20055;-76
2021/03/06 19:51:31;;;;;;;11.88;9.93;;;;;;;2.21;83.53;102137.59;10219662;29;20048;-76
2021/03/06 19:56:33;;;;;;;12.00;10.70;;;;;;;2.06;83.12;102126.97;10220233;29;20048;-76
2021/03/06 20:01:37;;;;;;;13.68;11.60;;;;;;;2.12;83.02;102129.66;10227560;29;20050;-76
2021/03/06 20:06:38;;;;;;;15.53;11.63;;;;;;;1.77;83.43;102103.13;10227364;29;20051;-76
2021/03/06 20:11:39;;;;;;;12.63;10.82;;;;;;;1.77;84.67;102118.72;10227121;29;20040;-77
2021/03/06 20:16:41;;;;;;;13.50;10.90;;;;;;;1.69;84.63;102121.19;10225692;29;20363;-76
2021/03/06 20:21:42;;;;;;;14.13;10.20;;;;;;;1.60;84.72;102109.75;10221582;29;20454;-74
2021/03/06 20:26:43;;;;;;;16.00;11.70;;;;;;;1.56;85.03;102106.25;10204153;29;20056;-73
2021/03/06 20:31:45;;;;;;;14.30;11.57;;;;;;;1.67;84.25;102124.63;10224701;29;20084;-76
2021/03/06 20:36:47;;;;;;;23.15;20.70;;;;;;;1.25;84.19;102075.44;10222412;29;20035;-76
2021/03/06 20:41:49;;;;;;;21.58;19.33;;;;;;;1.37;84.50;102104.19;10225733;29;20058;-75
2021/03/06 20:46:51;;;;;;;19.23;16.98;;;;;;;1.57;83.99;102114.94;10224253;29;20104;-76
2021/03/06 20:51:52;;;;;;;13.07;11.57;;;;;;;1.70;81.45;102112.53;10208860;29;20048;-75
2021/03/06 20:56:53;;;;;;;13.38;9.88;;;;;;;1.37;80.98;102071.31;10224084;29;20433;-75
2021/03/06 21:01:55;;;;;;;10.45;9.00;;;;;;;1.40;80.72;102075.69;10223845;29;20035;-75
2021/03/06 21:06:57;;;;;;;11.68;8.80;;;;;;;1.13;81.41;102060.50;10208071;29;20056;-75
2021/03/06 21:12:02;;;;;;;11.55;7.95;;;;;;;1.24;82.84;102081.47;10220059;29;20104;-76
2021/03/06 21:17:03;;;;;;;9.63;8.15;;;;;;;1.15;83.02;102074.41;10221680;29;20044;-75
2021/03/06 21:22:04;;;;;;;10.63;8.05;;;;;;;1.04;82.92;102066.41;10220246;29;20068;-76
2021/03/06 21:27:07;;;;;;;11.10;8.10;;;;;;;0.97;83.01;102067.16;10220446;29;20058;-76
2021/03/06 21:32:08;;;;;;;11.88;7.57;;;;;;;0.81;83.03;102052.16;10220527;29;20036;-75
2021/03/06 21:37:09;;;;;;;9.93;7.45;;;;;;;0.79;83.39;102055.56;10219245;29;20059;-75
2021/03/06 21:42:10;;;;;;;19.13;12.38;;;;;;;0.73;83.61;102058.91;10221159;29;20052;-76
2021/03/06 21:47:12;;;;;;;10.60;7.88;;;;;;;0.57;83.92;102049.97;10219919;29;20096;-77
2021/03/06 21:52:13;;;;;;;9.98;7.70;;;;;;;0.74;83.92;102076.22;10218787;29;20059;-76
2021/03/06 21:57:14;;;;;;;11.00;8.95;;;;;;;0.82;83.76;102074.66;10219000;29;20063;-76
2021/03/06 22:02:15;;;;;;;11.95;8.65;;;;;;;0.75;83.66;102063.25;10202018;29;20044;-75
2021/03/06 22:07:17;;;;;;;11.48;8.25;;;;;;;0.53;83.76;102029.13;10217980;29;20095;-76
2021/03/06 22:12:27;;;;;;;11.82;8.48;;;;;;;0.39;84.16;102015.91;10217919;29;20108;-76
2021/03/06 22:17:28;;;;;;;12.50;8.30;;;;;;;0.11;85.23;101991.13;10221360;29;20079;-75
2021/03/06 22:22:30;;;;;;;10.32;8.65;;;;;;;0.10;86.90;101996.28;10210420;29;20047;-76
2021/03/06 22:27:31;;;;;;;12.25;8.30;;;;;;;0.27;87.59;102013.94;10210823;29;20116;-76
2021/03/06 22:32:32;;;;;;;21.17;15.20;;;;;;;0.31;87.73;102018.34;10226047;29;20075;-75
2021/03/06 22:37:34;;;;;;;25.63;19.08;;;;;;;0.18;87.02;101994.72;10225029;29;20055;-75
2021/03/06 22:42:48;;;;;;;29.20;24.00;;;;;;;0.09;87.32;101985.03;10224923;29;20052;-75
2021/03/06 22:47:50;;;;;;;30.92;24.13;;;;;;;-0.21;87.97;101963.69;10224919;29;20104;-76
2021/03/06 22:52:51;;;;;;;21.58;15.75;;;;;;;-0.19;88.63;101978.44;10224962;29;20541;-75
2021/03/06 22:57:52;;;;;;;15.23;12.93;;;;;;;-0.38;89.20;101966.78;10224176;29;20028;-76
2021/03/06 23:02:53;;;;;;;11.75;9.65;;;;;;;-0.38;90.97;101978.84;10224622;29;20063;-76
2021/03/06 23:07:55;;;;;;;14.82;9.82;;;;;;;-0.17;91.78;101997.44;10224343;29;20078;-76